createdAt,value
2022-12-06T00:00:29.854Z,-0.14
2022-12-06T00:03:31.527Z,-0.15
2022-12-06T00:06:34.183Z,-0.13
2022-12-06T00:09:35.920Z,-0.09
2022-12-06T00:12:37.562Z,-0.11
2022-12-06T00:15:40.603Z,-0.14
2022-12-06T00:18:43.118Z,-0.14
2022-12-06T00:21:45.326Z,-0.16
2022-12-06T00:24:46.927Z,-0.13
2022-12-06T00:27:48.509Z,-0.14
2022-12-06T00:30:57.202Z,-0.17
2022-12-06T00:33:59.300Z,-0.18
2022-12-06T00:37:01.152Z,-0.16
2022-12-06T00:40:03.045Z,-0.17
2022-12-06T00:43:04.790Z,-0.19
2022-12-06T00:46:08.876Z,-0.20
2022-12-06T00:49:10.634Z,-0.23
2022-12-06T00:52:12.280Z,-0.22
2022-12-06T00:55:14.270Z,-0.22
2022-12-06T00:58:16.667Z,-0.22
2022-12-06T01:01:21.713Z,-0.23
2022-12-06T01:04:23.539Z,-0.20
2022-12-06T01:07:25.630Z,-0.22
2022-12-06T01:10:27.421Z,-0.22
2022-12-06T01:13:29.204Z,-0.22
2022-12-06T01:16:32.541Z,-0.23
2022-12-06T01:19:34.676Z,-0.24
2022-12-06T01:22:37.177Z,-0.23
2022-12-06T01:25:38.745Z,-0.22
2022-12-06T01:28:40.373Z,-0.22
2022-12-06T01:31:43.297Z,-0.18
2022-12-06T01:34:45.331Z,-0.18
2022-12-06T01:37:46.850Z,-0.21
2022-12-06T01:40:48.738Z,-0.19
2022-12-06T01:43:50.483Z,-0.22
2022-12-06T01:46:54.519Z,-0.22
2022-12-06T01:49:58.463Z,-0.22
2022-12-06T01:53:02.352Z,-0.20
2022-12-06T01:56:04.211Z,-0.21
2022-12-06T01:59:07.293Z,-0.21
2022-12-06T02:02:10.738Z,-0.22
2022-12-06T02:05:13.287Z,-0.19
2022-12-06T02:08:15.277Z,-0.19
2022-12-06T02:11:16.945Z,-0.17
2022-12-06T02:14:20.828Z,-0.21
2022-12-06T02:17:30.054Z,-0.23
2022-12-06T02:20:33.313Z,-0.24
2022-12-06T02:23:43.135Z,-0.24
2022-12-06T02:26:47.456Z,-0.19
2022-12-06T02:30:08.092Z,-0.26
2022-12-06T02:33:15.709Z,-0.28
2022-12-06T02:36:21.622Z,-0.25
2022-12-06T02:39:28.104Z,-0.27
2022-12-06T02:42:33.906Z,-0.27
2022-12-06T02:45:39.091Z,-0.25
2022-12-06T02:48:43.003Z,-0.28
2022-12-06T02:51:46.165Z,-0.28
2022-12-06T02:54:48.591Z,-0.32
2022-12-06T02:57:51.383Z,-0.33
2022-12-06T03:00:55.837Z,-0.35
2022-12-06T03:04:06.952Z,-0.33
2022-12-06T03:07:12.536Z,-0.34
2022-12-06T03:10:25.299Z,-0.36
2022-12-06T03:13:31.925Z,-0.35
2022-12-06T03:16:40.802Z,-0.36
2022-12-06T03:19:45.504Z,-0.35
2022-12-06T03:22:50.244Z,-0.34
2022-12-06T03:25:52.938Z,-0.32
2022-12-06T03:28:56.741Z,-0.34
2022-12-06T03:32:00.720Z,-0.31
2022-12-06T03:35:06.487Z,-0.32
2022-12-06T03:38:10.158Z,-0.34
2022-12-06T03:41:13.544Z,-0.35
2022-12-06T03:44:15.394Z,-0.37
2022-12-06T03:47:20.994Z,-0.36
2022-12-06T03:50:28.306Z,-0.35
2022-12-06T03:53:30.195Z,-0.35
2022-12-06T03:56:32.459Z,-0.35
2022-12-06T03:59:34.214Z,-0.37
2022-12-06T04:02:35.860Z,-0.37
2022-12-06T04:05:38.865Z,-0.35
2022-12-06T04:08:40.595Z,-0.36
2022-12-06T04:11:42.170Z,-0.35
2022-12-06T04:14:44.014Z,-0.38
2022-12-06T04:18:05.270Z,-0.39
2022-12-06T04:21:26.619Z,-0.39
2022-12-06T04:24:28.234Z,-0.39
2022-12-06T04:27:59.407Z,-0.37
2022-12-06T04:31:22.377Z,-0.38
2022-12-06T04:34:43.240Z,-0.37
2022-12-06T04:38:04.738Z,-0.39
2022-12-06T04:41:06.396Z,-0.41
2022-12-06T04:44:07.950Z,-0.37
2022-12-06T04:47:09.830Z,-0.35
2022-12-06T04:50:11.467Z,-0.36
2022-12-06T04:53:15.291Z,-0.36
2022-12-06T04:56:17.292Z,-0.35
2022-12-06T04:59:19.025Z,-0.37
2022-12-06T05:02:21.183Z,-0.39
2022-12-06T05:05:22.760Z,-0.36
2022-12-06T05:08:29.021Z,-0.37
2022-12-06T05:11:31.269Z,-0.39
2022-12-06T05:14:32.999Z,-0.37
2022-12-06T05:17:34.597Z,-0.34
2022-12-06T05:20:38.663Z,-0.33
2022-12-06T05:23:41.845Z,-0.35
2022-12-06T05:26:43.529Z,-0.34
2022-12-06T05:29:45.163Z,-0.34
2022-12-06T05:32:46.956Z,-0.33
2022-12-06T05:35:48.718Z,-0.33
2022-12-06T05:38:52.073Z,-0.32
2022-12-06T05:41:53.697Z,-0.28
2022-12-06T05:44:55.355Z,-0.30
2022-12-06T05:47:56.981Z,-0.30
2022-12-06T05:50:58.659Z,-0.30
2022-12-06T05:54:05.173Z,-0.27
2022-12-06T05:57:06.829Z,-0.32
2022-12-06T06:00:09.429Z,-0.31
2022-12-06T06:03:11.252Z,-0.29
2022-12-06T06:06:12.980Z,-0.28
2022-12-06T06:09:15.940Z,-0.26
2022-12-06T06:12:17.680Z,-0.27
2022-12-06T06:15:19.743Z,-0.28
2022-12-06T06:18:21.545Z,-0.25
2022-12-06T06:21:23.390Z,-0.24
2022-12-06T06:24:26.348Z,-0.24
2022-12-06T06:27:28.334Z,-0.23
2022-12-06T06:30:30.416Z,-0.20
2022-12-06T06:33:32.866Z,-0.19
2022-12-06T06:36:34.474Z,-0.16
2022-12-06T06:39:37.828Z,-0.17
2022-12-06T06:42:39.592Z,-0.18
2022-12-06T06:45:41.179Z,-0.18
2022-12-06T06:48:42.845Z,-0.17
2022-12-06T06:51:44.669Z,-0.14
2022-12-06T06:54:47.669Z,-0.14
2022-12-06T06:57:49.317Z,-0.14
2022-12-06T07:00:52.672Z,-0.14
2022-12-06T07:03:54.600Z,-0.12
2022-12-06T07:06:56.310Z,-0.11
2022-12-06T07:09:59.655Z,-0.12
2022-12-06T07:13:01.550Z,-0.08
2022-12-06T07:16:03.648Z,-0.06
2022-12-06T07:19:09.045Z,-0.15
2022-12-06T07:22:11.059Z,-0.17
2022-12-06T07:25:14.323Z,-0.11
2022-12-06T07:28:15.935Z,-0.14
2022-12-06T07:31:18.493Z,-0.11
2022-12-06T07:34:20.370Z,-0.08
2022-12-06T07:37:21.967Z,-0.05
2022-12-06T07:40:48.162Z,-0.04
2022-12-06T07:44:05.284Z,-0.03
2022-12-06T07:47:07.081Z,-0.04
2022-12-06T07:50:15.977Z,-0.03
2022-12-06T07:53:19.498Z,-0.04
2022-12-06T07:56:22.835Z,0.01
2022-12-06T07:59:25.216Z,-0.03
2022-12-06T08:02:27.424Z,-0.01
2022-12-06T08:05:29.093Z,-0.01
2022-12-06T08:08:31.696Z,-0.01
2022-12-06T08:11:34.855Z,0.00
2022-12-06T08:14:36.869Z,0.06
2022-12-06T08:17:38.692Z,0.08
2022-12-06T08:20:40.589Z,0.11
2022-12-06T08:23:42.192Z,0.06
2022-12-06T08:26:48.661Z,0.06
2022-12-06T08:29:50.440Z,0.08
2022-12-06T08:32:52.111Z,0.08
2022-12-06T08:35:53.763Z,0.08
2022-12-06T08:38:56.089Z,0.08
2022-12-06T08:41:59.257Z,0.12
2022-12-06T08:45:00.995Z,0.12
2022-12-06T08:48:02.979Z,0.17
2022-12-06T08:51:04.936Z,0.14
2022-12-06T08:54:07.493Z,0.10
2022-12-06T08:57:10.689Z,0.04
2022-12-06T09:00:13.194Z,0.06
2022-12-06T09:03:14.800Z,0.12
2022-12-06T09:06:16.632Z,0.13
2022-12-06T09:09:18.646Z,0.18
2022-12-06T09:12:21.727Z,0.21
2022-12-06T09:15:23.359Z,0.16
2022-12-06T09:18:25.012Z,0.18
2022-12-06T09:21:30.609Z,0.21
2022-12-06T09:24:32.488Z,0.23
2022-12-06T09:27:35.571Z,0.20
2022-12-06T09:30:37.237Z,0.25
2022-12-06T09:33:38.923Z,0.31
2022-12-06T09:36:44.050Z,0.34
2022-12-06T09:39:47.797Z,0.37
2022-12-06T09:43:04.037Z,0.40
2022-12-06T09:46:11.377Z,0.42
2022-12-06T09:49:29.283Z,0.44
2022-12-06T09:52:37.452Z,0.48
2022-12-06T09:55:44.218Z,0.47
2022-12-06T09:58:53.392Z,0.51
2022-12-06T10:02:02.775Z,0.55
2022-12-06T10:05:15.548Z,0.54
2022-12-06T10:08:22.913Z,0.56
2022-12-06T10:11:31.505Z,0.50
2022-12-06T10:14:40.081Z,0.51
2022-12-06T10:17:52.422Z,0.47
2022-12-06T10:20:59.315Z,0.41
2022-12-06T10:24:07.872Z,0.47
2022-12-06T10:27:10.944Z,0.48
2022-12-06T10:30:14.742Z,0.54
2022-12-06T10:33:20.319Z,0.54
2022-12-06T10:36:27.702Z,0.53
2022-12-06T10:39:33.012Z,0.51
2022-12-06T10:42:37.277Z,0.52
2022-12-06T10:46:05.637Z,0.53
2022-12-06T10:49:13.592Z,0.55
2022-12-06T10:52:20.093Z,0.61
2022-12-06T10:55:24.692Z,0.59
2022-12-06T10:58:30.824Z,0.59
2022-12-06T11:01:36.814Z,0.64
2022-12-06T11:04:39.192Z,0.66
2022-12-06T11:07:43.683Z,0.65
2022-12-06T11:10:46.553Z,0.67
2022-12-06T11:13:51.028Z,0.68
2022-12-06T11:17:05.261Z,0.71
2022-12-06T11:20:13.465Z,0.74
2022-12-06T11:23:19.384Z,0.73
2022-12-06T11:26:28.136Z,0.78
2022-12-06T11:29:30.927Z,0.83
2022-12-06T11:32:34.048Z,0.79
2022-12-06T11:35:36.805Z,0.77
2022-12-06T11:38:39.770Z,0.78
2022-12-06T11:41:43.131Z,0.85
2022-12-06T11:44:49.928Z,0.91
2022-12-06T11:47:54.895Z,0.90
2022-12-06T11:50:56.784Z,0.91
2022-12-06T11:54:02.017Z,0.89
2022-12-06T11:57:15.770Z,0.92
2022-12-06T12:00:22.503Z,0.89
2022-12-06T12:03:28.880Z,0.87
2022-12-06T12:06:30.715Z,0.92
2022-12-06T12:09:33.742Z,0.95
2022-12-06T12:12:56.592Z,0.99
2022-12-06T12:16:00.774Z,1.01
2022-12-06T12:19:05.865Z,0.96
2022-12-06T12:22:14.945Z,0.93
2022-12-06T12:25:26.316Z,0.95
2022-12-06T12:28:29.913Z,0.97
2022-12-06T12:31:31.912Z,1.00
2022-12-06T12:34:40.150Z,1.03
2022-12-06T12:37:44.412Z,1.03
2022-12-06T12:40:47.527Z,1.06
2022-12-06T12:44:13.770Z,1.05
2022-12-06T12:47:19.639Z,1.08
2022-12-06T12:50:24.023Z,1.08
2022-12-06T12:53:29.521Z,1.12
2022-12-06T12:56:33.194Z,1.16
2022-12-06T12:59:37.821Z,1.20
2022-12-06T13:02:40.366Z,1.22
2022-12-06T13:05:47.202Z,1.24
2022-12-06T13:08:49.720Z,1.28
2022-12-06T13:11:53.836Z,1.29
2022-12-06T13:14:58.555Z,1.31
2022-12-06T13:18:03.503Z,1.34
2022-12-06T13:21:11.599Z,1.34
2022-12-06T13:24:18.240Z,1.36
2022-12-06T13:27:22.555Z,1.33
2022-12-06T13:30:26.438Z,1.38
2022-12-06T13:33:30.130Z,1.39
2022-12-06T13:36:34.026Z,1.39
2022-12-06T13:39:37.247Z,1.41
2022-12-06T13:42:44.034Z,1.36
2022-12-06T13:45:49.048Z,1.36
2022-12-06T13:48:51.915Z,1.36
2022-12-06T13:51:55.010Z,1.34
2022-12-06T13:54:56.806Z,1.31
2022-12-06T13:58:21.557Z,1.35
2022-12-06T14:01:40.356Z,1.33
2022-12-06T14:04:42.620Z,1.33
2022-12-06T14:07:45.803Z,1.34
2022-12-06T14:10:47.592Z,1.39
2022-12-06T14:13:59.999Z,1.40
2022-12-06T14:17:03.881Z,1.43
2022-12-06T14:20:19.302Z,1.43
2022-12-06T14:23:24.727Z,1.42
2022-12-06T14:26:27.315Z,1.42
2022-12-06T14:29:31.139Z,1.43
2022-12-06T14:32:36.983Z,1.39
2022-12-06T14:35:40.082Z,1.39
2022-12-06T14:38:43.111Z,1.42
2022-12-06T14:42:10.029Z,1.38
2022-12-06T14:45:14.262Z,1.38
2022-12-06T14:48:16.146Z,1.37
2022-12-06T14:51:23.210Z,1.37
2022-12-06T14:54:34.300Z,1.34
2022-12-06T14:57:39.210Z,1.33
2022-12-06T15:00:48.727Z,1.31
2022-12-06T15:03:57.530Z,1.32
2022-12-06T15:06:59.783Z,1.30
2022-12-06T15:10:10.191Z,1.32
2022-12-06T15:13:14.951Z,1.32
2022-12-06T15:16:16.752Z,1.32
2022-12-06T15:19:18.706Z,1.31
2022-12-06T15:22:24.897Z,1.28
2022-12-06T15:25:28.619Z,1.19
2022-12-06T15:28:30.348Z,1.10
2022-12-06T15:31:32.399Z,1.08
2022-12-06T15:34:37.455Z,1.05
2022-12-06T15:37:40.414Z,1.07
2022-12-06T15:40:46.141Z,1.09
2022-12-06T15:43:48.059Z,1.11
2022-12-06T15:46:50.269Z,1.16
2022-12-06T15:49:59.727Z,1.19
2022-12-06T15:53:01.531Z,1.21
2022-12-06T15:56:04.960Z,1.23
2022-12-06T15:59:06.721Z,1.23
2022-12-06T16:02:13.237Z,1.24
2022-12-06T16:05:16.146Z,1.25
2022-12-06T16:08:17.841Z,1.25
2022-12-06T16:11:26.112Z,1.24
2022-12-06T16:14:28.055Z,1.25
2022-12-06T16:17:30.175Z,1.27
2022-12-06T16:20:31.800Z,1.28
2022-12-06T16:27:17.260Z,1.29
2022-12-06T16:30:30.168Z,1.31
2022-12-06T16:33:31.839Z,1.32
2022-12-06T16:36:34.350Z,1.30
2022-12-06T16:39:36.659Z,1.30
2022-12-06T16:42:39.697Z,1.31
2022-12-06T16:45:42.274Z,1.29
2022-12-06T16:48:44.056Z,1.31
2022-12-06T16:51:46.364Z,1.29
2022-12-06T16:54:48.276Z,1.29
2022-12-06T16:57:51.375Z,1.29
2022-12-06T17:00:53.135Z,1.28
2022-12-06T17:03:56.035Z,1.29
2022-12-06T17:06:57.979Z,1.31
2022-12-06T17:10:00.147Z,1.31
2022-12-06T17:13:04.480Z,1.30
2022-12-06T17:16:07.233Z,1.28
2022-12-06T17:19:12.626Z,1.27
2022-12-06T17:22:16.879Z,1.26
2022-12-06T17:25:20.833Z,1.26
2022-12-06T17:28:23.892Z,1.25
2022-12-06T17:31:26.162Z,1.29
2022-12-06T17:34:28.318Z,1.29
2022-12-06T17:37:30.104Z,1.27
2022-12-06T17:40:32.267Z,1.23
2022-12-06T17:43:35.703Z,1.15
2022-12-06T17:46:38.101Z,1.13
2022-12-06T17:49:39.905Z,1.10
2022-12-06T17:52:41.646Z,1.08
2022-12-06T17:55:43.315Z,1.08
2022-12-06T17:58:46.453Z,1.08
2022-12-06T18:02:14.180Z,1.05
2022-12-06T18:05:10.475Z,1.08
2022-12-06T18:08:12.323Z,1.09
2022-12-06T18:11:14.467Z,1.08
2022-12-06T18:14:17.784Z,1.06
2022-12-06T18:17:19.351Z,1.06
2022-12-06T18:20:21.714Z,1.06
2022-12-06T18:23:23.336Z,1.01
2022-12-06T18:26:25.200Z,1.07
2022-12-06T18:29:28.407Z,1.09
2022-12-06T18:32:32.786Z,1.09
2022-12-06T18:35:35.370Z,1.13
2022-12-06T18:38:37.549Z,1.15
2022-12-06T18:41:39.994Z,1.17
2022-12-06T18:44:43.010Z,1.16
2022-12-06T18:47:44.566Z,1.17
2022-12-06T18:50:46.169Z,1.19
2022-12-06T18:53:48.798Z,1.16
2022-12-06T18:56:50.468Z,1.18
2022-12-06T18:59:53.588Z,1.17
2022-12-06T19:02:55.357Z,1.19
2022-12-06T19:06:04.155Z,1.20
2022-12-06T19:09:07.925Z,1.22
2022-12-06T19:12:10.142Z,1.23
2022-12-06T19:15:14.127Z,1.23
2022-12-06T19:18:15.711Z,1.26
2022-12-06T19:21:17.789Z,1.25
2022-12-06T19:24:21.699Z,1.27
2022-12-06T19:27:23.310Z,1.28
2022-12-06T19:30:26.314Z,1.28
2022-12-06T19:33:28.500Z,1.28
2022-12-06T19:36:30.863Z,1.28
2022-12-06T19:39:32.583Z,1.29
2022-12-06T19:42:53.458Z,1.28
2022-12-06T19:45:56.639Z,1.31
2022-12-06T19:48:59.575Z,1.31
2022-12-06T19:52:01.254Z,1.32
2022-12-06T19:55:03.132Z,1.34
2022-12-06T19:58:05.118Z,1.34
2022-12-06T20:01:09.185Z,1.38
2022-12-06T20:04:14.028Z,1.39
2022-12-06T20:07:15.686Z,1.41
2022-12-06T20:10:17.393Z,1.42
2022-12-06T20:13:18.993Z,1.43
2022-12-06T20:16:22.055Z,1.44
2022-12-06T20:19:24.292Z,1.45
2022-12-06T20:22:25.912Z,1.46
2022-12-06T20:25:27.708Z,1.45
2022-12-06T20:28:29.292Z,1.44
2022-12-06T20:31:32.913Z,1.47
2022-12-06T20:34:35.073Z,1.51
2022-12-06T20:37:37.132Z,1.52
2022-12-06T20:40:38.810Z,1.55
2022-12-06T20:43:40.968Z,1.56
2022-12-06T20:46:44.539Z,1.56
2022-12-06T20:49:46.185Z,1.56
2022-12-06T20:52:48.599Z,1.55
2022-12-06T20:55:50.300Z,1.55
2022-12-06T20:58:53.290Z,1.56
2022-12-06T21:01:56.649Z,1.56
2022-12-06T21:04:58.374Z,1.57
2022-12-06T21:08:00.128Z,1.57
2022-12-06T21:14:23.744Z,1.58
2022-12-06T21:17:26.707Z,1.57
2022-12-06T21:20:28.355Z,1.55
2022-12-06T21:23:30.099Z,1.55
2022-12-06T21:26:31.886Z,1.54
2022-12-06T21:29:33.733Z,1.56
2022-12-06T21:32:36.714Z,1.59
2022-12-06T21:35:39.125Z,1.59
2022-12-06T21:38:40.707Z,1.60
2022-12-06T21:41:42.439Z,1.60
2022-12-06T21:44:44.023Z,1.62
2022-12-06T21:47:47.160Z,1.61
2022-12-06T21:50:49.017Z,1.55
2022-12-06T21:53:50.799Z,1.51
2022-12-06T21:56:52.539Z,1.45
2022-12-06T21:59:54.389Z,1.39
2022-12-06T22:02:57.912Z,1.38
2022-12-06T22:06:02.910Z,1.33
2022-12-06T22:09:06.848Z,1.33
2022-12-06T22:12:08.809Z,1.32
2022-12-06T22:15:10.502Z,1.34
2022-12-06T22:18:13.517Z,1.33
2022-12-06T22:21:16.687Z,1.33
2022-12-06T22:24:18.459Z,1.30
2022-12-06T22:27:20.020Z,1.30
2022-12-06T22:30:21.595Z,1.30
2022-12-06T22:33:24.570Z,1.29
2022-12-06T22:36:27.106Z,1.30
2022-12-06T22:39:28.672Z,1.32
2022-12-06T22:42:31.237Z,1.32
2022-12-06T22:45:35.556Z,1.33
2022-12-06T22:48:38.941Z,1.35
2022-12-06T22:51:40.787Z,1.37
2022-12-06T22:54:42.697Z,1.37
2022-12-06T22:57:44.461Z,1.45
2022-12-06T23:00:46.051Z,1.48
2022-12-06T23:03:51.679Z,1.47
2022-12-06T23:06:53.333Z,1.46
2022-12-06T23:09:55.000Z,1.44
2022-12-06T23:12:56.632Z,1.48
2022-12-06T23:15:59.270Z,1.51
2022-12-06T23:19:03.242Z,1.54
2022-12-06T23:22:04.861Z,1.57
2022-12-06T23:25:06.958Z,1.60
2022-12-06T23:28:08.588Z,1.66
2022-12-06T23:31:13.104Z,1.67
2022-12-06T23:34:17.785Z,1.72
2022-12-06T23:37:19.446Z,1.74
2022-12-06T23:40:21.185Z,1.75
2022-12-06T23:43:22.926Z,1.77
2022-12-06T23:46:25.484Z,1.78
2022-12-06T23:49:28.429Z,1.78
2022-12-06T23:52:30.184Z,1.77
2022-12-06T23:55:35.421Z,1.77
2022-12-06T23:58:37.536Z,1.75
